createdAt,value
2022-08-27T00:10:05.735Z,68.10
2022-08-27T00:20:15.248Z,68.45
2022-08-27T00:30:24.470Z,68.42
2022-08-27T00:40:33.746Z,68.66
2022-08-27T00:50:45.636Z,68.32
2022-08-27T01:00:53.730Z,68.18
2022-08-27T01:11:02.469Z,68.28
2022-08-27T01:21:14.543Z,68.47
2022-08-27T01:31:22.500Z,68.85
2022-08-27T01:41:30.442Z,69.47
2022-08-27T01:51:37.263Z,69.49
2022-08-27T02:01:45.269Z,70.20
2022-08-27T02:11:52.572Z,70.31
2022-08-27T02:21:59.335Z,71.07
2022-08-27T02:32:06.360Z,71.09
2022-08-27T02:42:12.774Z,71.40
2022-08-27T02:52:22.793Z,71.60
2022-08-27T03:02:32.806Z,71.67
2022-08-27T03:12:40.344Z,71.79
2022-08-27T03:22:47.905Z,72.12
2022-08-27T03:32:55.028Z,72.44
2022-08-27T03:43:02.184Z,72.92
2022-08-27T03:53:10.697Z,72.68
2022-08-27T04:03:18.476Z,72.75
2022-08-27T04:13:27.117Z,72.65
2022-08-27T04:23:34.579Z,73.34
2022-08-27T04:33:40.693Z,72.99
2022-08-27T04:43:47.924Z,72.99
2022-08-27T04:53:55.670Z,73.46
2022-08-27T05:04:03.054Z,73.41
2022-08-27T05:14:12.694Z,72.72
2022-08-27T05:24:20.679Z,72.18
2022-08-27T05:34:26.704Z,71.72
2022-08-27T05:44:41.045Z,71.27
2022-08-27T05:54:49.655Z,70.09
2022-08-27T06:04:55.363Z,68.98
2022-08-27T06:15:02.643Z,67.39
2022-08-27T06:25:09.933Z,66.40
2022-08-27T06:35:15.985Z,64.48
2022-08-27T06:45:23.777Z,62.61
2022-08-27T06:55:34.228Z,60.63
2022-08-27T07:05:44.659Z,58.36
2022-08-27T07:15:52.191Z,57.19
2022-08-27T07:36:05.182Z,55.48
2022-08-27T07:46:12.763Z,53.85
2022-08-27T07:56:20.221Z,52.25
2022-08-27T08:06:28.391Z,52.85
2022-08-27T08:16:35.616Z,51.68
2022-08-27T08:26:44.593Z,51.00
2022-08-27T08:36:55.109Z,51.14
2022-08-27T08:47:01.282Z,51.15
2022-08-27T08:57:18.690Z,50.98
2022-08-27T09:07:33.429Z,50.16
2022-08-27T09:17:42.175Z,49.26
2022-08-27T09:27:50.648Z,48.47
2022-08-27T09:37:59.631Z,48.41
2022-08-27T09:48:06.857Z,48.50
2022-08-27T09:58:19.092Z,45.86
2022-08-27T10:08:24.928Z,45.80
2022-08-27T10:28:40.045Z,42.66
2022-08-27T10:38:51.950Z,41.91
2022-08-27T10:49:03.385Z,40.82
2022-08-27T10:59:09.224Z,40.49
2022-08-27T11:09:18.671Z,38.87
2022-08-27T11:29:35.330Z,36.98
2022-08-27T11:50:01.337Z,37.45
2022-08-27T12:00:30.673Z,36.79
2022-08-27T12:10:36.680Z,36.36
2022-08-27T12:20:43.760Z,37.30
2022-08-27T12:30:52.122Z,36.67
2022-08-27T12:40:59.881Z,36.91
2022-08-27T12:51:18.004Z,37.51
2022-08-27T13:01:35.097Z,37.20
2022-08-27T13:11:48.230Z,38.32
2022-08-27T13:21:56.411Z,38.21
2022-08-27T13:32:04.359Z,38.48
2022-08-27T13:42:12.190Z,38.79
2022-08-27T13:52:21.312Z,39.04
2022-08-27T14:02:33.552Z,39.27
2022-08-27T14:12:43.468Z,38.38
2022-08-27T14:22:51.331Z,38.63
2022-08-27T14:32:58.600Z,38.90
2022-08-27T14:43:03.861Z,38.99
2022-08-27T14:53:11.126Z,38.94
2022-08-27T15:03:20.007Z,39.19
2022-08-27T15:13:27.559Z,39.69
2022-08-27T15:23:34.922Z,39.94
2022-08-27T15:33:42.481Z,40.37
2022-08-27T15:43:49.712Z,40.94
2022-08-27T15:53:56.903Z,41.56
2022-08-27T16:04:06.268Z,42.31
2022-08-27T16:14:14.365Z,42.55
2022-08-27T16:24:21.653Z,43.26
2022-08-27T16:34:26.282Z,44.40
2022-08-27T16:44:35.437Z,45.63
2022-08-27T16:54:42.951Z,46.79
2022-08-27T17:04:51.129Z,47.42
2022-08-27T17:15:10.197Z,47.88
2022-08-27T17:25:17.475Z,47.60
2022-08-27T17:35:22.091Z,47.83
2022-08-27T17:45:29.669Z,48.00
2022-08-27T17:55:37.843Z,48.62
2022-08-27T18:05:45.919Z,49.38
2022-08-27T18:15:52.466Z,49.86
2022-08-27T18:26:00.247Z,50.25
2022-08-27T18:36:09.067Z,50.89
2022-08-27T18:46:17.473Z,51.73
2022-08-27T18:56:23.752Z,52.31
2022-08-27T19:06:31.155Z,53.05
2022-08-27T19:16:44.462Z,53.88
2022-08-27T19:26:53.357Z,54.60
2022-08-27T19:37:02.731Z,55.72
2022-08-27T19:47:11.867Z,56.37
2022-08-27T19:57:19.071Z,56.83
2022-08-27T20:07:25.230Z,57.19
2022-08-27T20:17:32.382Z,57.44
2022-08-27T20:27:40.824Z,57.96
2022-08-27T20:37:47.883Z,58.40
2022-08-27T20:58:21.031Z,59.48
2022-08-27T21:08:28.201Z,59.70
2022-08-27T21:18:35.782Z,59.84
2022-08-27T21:28:44.691Z,60.04
2022-08-27T21:38:51.987Z,60.32
2022-08-27T21:48:59.343Z,60.68
2022-08-27T21:59:05.930Z,61.07
2022-08-27T22:09:13.469Z,61.17
2022-08-27T22:19:22.632Z,61.74
2022-08-27T22:29:30.722Z,62.29
2022-08-27T22:39:38.814Z,62.89
2022-08-27T22:49:46.479Z,63.55
2022-08-27T22:59:53.592Z,63.89
2022-08-27T23:10:01.261Z,64.38
2022-08-27T23:20:10.607Z,64.95
2022-08-27T23:30:18.575Z,65.31
2022-08-27T23:40:24.856Z,65.65
2022-08-27T23:50:33.861Z,65.96
